Time;durP1;ratioP1;P1;durP2;ratioP2;P2;SDS_P1;SDS_P2;PMS_P1;PMS_P2;Temp;Humidity;BMP_temperature;BMP_pressure;BME280_temperature;BME280_humidity;BME280_pressure;Samples;Min_cycle;Max_cycle;Signal;HPM_P1;HPM_P2
2021/10/31 00:01:43;;;;;;;5.10;3.75;;;;;;;;;;5849774;24;35091;-72
2021/10/31 00:04:10;;;;;;;5.00;3.95;;;;;;;;;;5849686;24;32326;-70
2021/10/31 00:06:37;;;;;;;6.80;3.83;;;;;;;;;;5850049;24;32299;-70
2021/10/31 00:09:07;;;;;;;7.28;4.05;;;;;;;;;;5849580;24;32671;-70
2021/10/31 00:11:37;;;;;;;6.18;4.32;;;;;;;;;;5850271;24;32292;-68
2021/10/31 00:14:04;;;;;;;4.53;3.53;;;;;;;;;;5849754;24;35199;-72
2021/10/31 00:16:31;;;;;;;5.15;3.78;;;;;;;;;;5849634;24;32310;-68
2021/10/31 00:18:58;;;;;;;7.35;3.70;;;;;;;;;;5849669;24;32318;-68
2021/10/31 00:21:26;;;;;;;5.65;4.15;;;;;;;;;;5849862;24;32330;-68
2021/10/31 00:23:53;;;;;;;5.40;3.80;;;;;;;;;;5849319;24;34629;-68
2021/10/31 00:26:19;;;;;;;4.13;3.42;;;;;;;;;;5849628;24;32505;-71
2021/10/31 00:28:47;;;;;;;4.03;3.47;;;;;;;;;;5849587;24;32445;-70
2021/10/31 00:31:14;;;;;;;5.35;3.75;;;;;;;;;;5849595;24;32342;-69
2021/10/31 00:33:41;;;;;;;6.68;4.35;;;;;;;;;;5849827;24;32438;-68
2021/10/31 00:36:07;;;;;;;5.75;4.05;;;;;;;;;;5849490;24;34442;-68
2021/10/31 00:38:34;;;;;;;6.60;4.03;;;;;;;;;;5849788;24;32306;-69
2021/10/31 00:41:01;;;;;;;4.82;4.03;;;;;;;;;;5818806;24;33054;-71
2021/10/31 00:43:28;;;;;;;5.25;3.88;;;;;;;;;;5849989;24;32247;-70
2021/10/31 00:45:56;;;;;;;5.95;4.00;;;;;;;;;;5849453;24;34156;-70
2021/10/31 00:48:22;;;;;;;5.68;4.03;;;;;;;;;;5849646;24;32378;-68
2021/10/31 00:50:50;;;;;;;4.63;4.03;;;;;;;;;;5849461;24;32247;-68
2021/10/31 00:53:18;;;;;;;6.43;3.67;;;;;;;;;;5849472;24;32362;-68
2021/10/31 00:55:45;;;;;;;4.53;4.10;;;;;;;;;;5849817;24;32336;-70
2021/10/31 00:58:12;;;;;;;;;;;;;;;;;;5849934;24;34027;-70
2021/10/31 01:00:39;;;;;;;5.10;3.75;;;;;;;;;;5849303;24;32480;-69
2021/10/31 01:03:07;;;;;;;5.18;4.25;;;;;;;;;;5849394;24;32365;-71
2021/10/31 01:05:41;;;;;;;5.25;4.28;;;;;;;;;;5849393;24;32518;-70
2021/10/31 01:08:17;;;;;;;5.38;3.72;;;;;;;;;;5849328;24;35285;-67
2021/10/31 01:11:05;;;;;;;5.78;3.83;;;;;;;;;;5849283;24;32415;-67
2021/10/31 01:13:58;;;;;;;4.38;3.85;;;;;;;;;;5849404;24;32451;-70
2021/10/31 01:16:41;;;;;;;6.78;3.72;;;;;;;;;;5849272;24;32333;-68
2021/10/31 01:19:36;;;;;;;6.13;4.15;;;;;;;;;;5849656;24;32539;-69
2021/10/31 01:22:11;;;;;;;6.13;3.88;;;;;;;;;;5849108;24;34629;-68
2021/10/31 01:24:58;;;;;;;4.82;4.13;;;;;;;;;;5849417;24;32609;-69
2021/10/31 01:27:37;;;;;;;6.38;4.07;;;;;;;;;;5849394;24;32365;-68
2021/10/31 01:30:14;;;;;;;4.82;3.85;;;;;;;;;;5849746;24;32438;-68
2021/10/31 01:33:02;;;;;;;5.07;4.18;;;;;;;;;;5849239;24;34132;-68
2021/10/31 01:35:55;;;;;;;6.05;4.50;;;;;;;;;;5849269;24;32252;-68
2021/10/31 01:38:35;;;;;;;5.47;4.50;;;;;;;;;;5849107;24;32288;-70
2021/10/31 01:41:10;;;;;;;5.60;4.10;;;;;;;;;;5849321;24;32527;-69
2021/10/31 01:43:49;;;;;;;6.10;3.97;;;;;;;;;;5843171;24;32471;-71
2021/10/31 01:46:31;;;;;;;7.72;4.20;;;;;;;;;;5849140;24;34950;-68
2021/10/31 01:49:08;;;;;;;7.22;4.00;;;;;;;;;;5848797;24;32382;-68
2021/10/31 01:51:43;;;;;;;5.80;4.40;;;;;;;;;;5849192;24;32338;-68
2021/10/31 01:54:14;;;;;;;6.50;3.92;;;;;;;;;;5848937;24;32401;-68
2021/10/31 01:56:44;;;;;;;6.57;4.18;;;;;;;;;;5848810;24;34479;-67
2021/10/31 01:59:22;;;;;;;5.40;4.38;;;;;;;;;;5848970;24;32384;-69
2021/10/31 02:01:50;;;;;;;7.20;4.53;;;;;;;;;;5848789;24;32572;-67
2021/10/31 02:04:23;;;;;;;4.70;4.05;;;;;;;;;;5848787;24;32338;-67
2021/10/31 02:06:53;;;;;;;6.60;4.32;;;;;;;;;;5848836;24;32334;-67
2021/10/31 02:09:23;;;;;;;6.70;4.55;;;;;;;;;;5848461;24;35080;-68
2021/10/31 02:11:52;;;;;;;5.82;4.72;;;;;;;;;;5848869;24;32443;-67
2021/10/31 02:14:20;;;;;;;4.68;4.13;;;;;;;;;;5848596;24;32251;-67
2021/10/31 02:16:47;;;;;;;5.32;4.05;;;;;;;;;;5848374;24;32259;-67
2021/10/31 02:19:21;;;;;;;6.07;4.15;;;;;;;;;;5848707;24;35123;-70
2021/10/31 02:21:56;;;;;;;6.05;3.85;;;;;;;;;;5848701;24;32365;-69
2021/10/31 02:24:24;;;;;;;6.50;4.60;;;;;;;;;;5848812;24;32224;-73
2021/10/31 02:26:51;;;;;;;5.28;4.13;;;;;;;;;;5848444;24;32299;-68
2021/10/31 02:29:19;;;;;;;6.38;4.25;;;;;;;;;;5848836;24;32353;-69
2021/10/31 02:31:46;;;;;;;7.22;4.47;;;;;;;;;;5848472;24;34508;-69
2021/10/31 02:34:12;;;;;;;7.13;4.03;;;;;;;;;;5848162;24;32342;-69
2021/10/31 02:36:39;;;;;;;5.63;4.03;;;;;;;;;;5848644;24;32412;-67
2021/10/31 02:39:08;;;;;;;7.20;4.10;;;;;;;;;;5848854;24;32241;-69
2021/10/31 02:41:37;;;;;;;5.60;4.28;;;;;;;;;;5848707;24;34044;-67
2021/10/31 02:44:04;;;;;;;5.97;4.38;;;;;;;;;;5848523;24;32341;-70
2021/10/31 02:46:35;;;;;;;5.22;3.80;;;;;;;;;;5846392;24;32377;-72
2021/10/31 02:49:04;;;;;;;6.18;4.65;;;;;;;;;;5848187;24;32387;-68
2021/10/31 02:51:43;;;;;;;8.00;5.13;;;;;;;;;;5848358;24;32354;-67
2021/10/31 02:54:22;;;;;;;5.90;4.53;;;;;;;;;;5848417;24;34560;-69
2021/10/31 02:57:01;;;;;;;6.75;4.47;;;;;;;;;;5848470;24;32488;-70
2021/10/31 02:59:42;;;;;;;5.60;4.55;;;;;;;;;;5824731;24;32358;-68
2021/10/31 03:02:10;;;;;;;5.78;4.43;;;;;;;;;;5847232;24;32354;-68
2021/10/31 03:04:38;;;;;;;8.38;5.20;;;;;;;;;;5848708;24;34152;-70
2021/10/31 03:07:05;;;;;;;6.22;4.75;;;;;;;;;;5848842;24;32497;-69
2021/10/31 03:09:32;;;;;;;5.85;4.45;;;;;;;;;;5848403;24;32446;-69
2021/10/31 03:12:01;;;;;;;6.03;4.50;;;;;;;;;;5848242;24;32360;-68
2021/10/31 03:14:27;;;;;;;8.02;4.60;;;;;;;;;;5848318;24;32284;-68
2021/10/31 03:16:54;;;;;;;6.10;4.20;;;;;;;;;;5848221;24;34004;-71
2021/10/31 03:19:21;;;;;;;6.50;4.82;;;;;;;;;;5848462;24;32377;-69
2021/10/31 03:21:48;;;;;;;7.40;4.60;;;;;;;;;;5848522;24;32440;-70
2021/10/31 03:24:15;;;;;;;7.18;4.40;;;;;;;;;;5848671;24;32327;-69
2021/10/31 03:26:41;;;;;;;6.20;4.68;;;;;;;;;;5847851;24;35368;-69
2021/10/31 03:29:09;;;;;;;5.88;4.50;;;;;;;;;;5849988;24;32861;-69
2021/10/31 03:31:36;;;;;;;5.45;4.40;;;;;;;;;;5850175;24;32780;-69
2021/10/31 03:34:03;;;;;;;6.43;4.68;;;;;;;;;;5849886;24;32243;-69
2021/10/31 03:36:29;;;;;;;7.07;5.40;;;;;;;;;;5850330;24;32377;-69
2021/10/31 03:38:56;;;;;;;6.05;4.82;;;;;;;;;;5825806;24;34087;-70
2021/10/31 03:41:23;;;;;;;5.63;4.38;;;;;;;;;;5849983;24;32331;-70
2021/10/31 03:43:50;;;;;;;6.82;4.53;;;;;;;;;;5849867;24;32389;-69
2021/10/31 03:46:18;;;;;;;6.10;4.53;;;;;;;;;;5850013;24;32439;-68
2021/10/31 03:48:44;;;;;;;6.53;5.13;;;;;;;;;;5849568;24;34620;-70
2021/10/31 03:51:11;;;;;;;6.13;4.78;;;;;;;;;;5849726;24;32415;-67
2021/10/31 03:53:37;;;;;;;6.43;4.75;;;;;;;;;;5846776;24;32347;-72
2021/10/31 03:56:05;;;;;;;7.43;4.63;;;;;;;;;;5850035;24;32369;-69
2021/10/31 03:58:31;;;;;;;6.15;4.72;;;;;;;;;;5849968;24;32344;-67
2021/10/31 04:01:00;;;;;;;6.50;5.07;;;;;;;;;;5849744;24;34080;-67
2021/10/31 04:03:28;;;;;;;8.10;5.35;;;;;;;;;;5849575;24;32433;-68
2021/10/31 04:05:54;;;;;;;7.93;4.80;;;;;;;;;;5849447;24;32630;-71
2021/10/31 04:08:21;;;;;;;7.63;5.50;;;;;;;;;;5849486;24;32254;-70
2021/10/31 04:10:48;;;;;;;7.38;5.13;;;;;;;;;;5849365;24;34766;-69
2021/10/31 04:13:14;;;;;;;6.68;5.05;;;;;;;;;;5849538;24;32318;-72
2021/10/31 04:15:42;;;;;;;6.25;4.47;;;;;;;;;;5849266;24;32385;-70
2021/10/31 04:18:10;;;;;;;6.45;5.38;;;;;;;;;;5848957;24;32385;-67
2021/10/31 04:20:38;;;;;;;6.38;5.00;;;;;;;;;;5849336;24;32359;-69
2021/10/31 04:23:05;;;;;;;7.35;4.90;;;;;;;;;;5849446;24;34701;-67
2021/10/31 04:25:31;;;;;;;6.78;4.68;;;;;;;;;;5849583;24;32813;-70
2021/10/31 04:27:58;;;;;;;5.97;4.50;;;;;;;;;;5849167;24;32295;-71
2021/10/31 04:30:24;;;;;;;6.57;4.97;;;;;;;;;;5849706;24;32543;-68
2021/10/31 04:32:51;;;;;;;6.63;4.85;;;;;;;;;;5849387;24;34045;-70
2021/10/31 04:35:18;;;;;;;8.48;5.53;;;;;;;;;;5849398;24;32259;-68
2021/10/31 04:37:46;;;;;;;7.85;4.78;;;;;;;;;;5848284;24;32405;-69
2021/10/31 04:40:15;;;;;;;5.88;4.55;;;;;;;;;;5848478;24;32444;-71
2021/10/31 04:42:42;;;;;;;10.50;5.13;;;;;;;;;;5846744;24;32445;-70
2021/10/31 04:45:09;;;;;;;9.13;5.40;;;;;;;;;;5848228;24;33991;-72
2021/10/31 04:47:35;;;;;;;;;;;;;;;;;;5849617;24;32389;-69
2021/10/31 04:50:02;;;;;;;;;;;;;;;;;;5849770;24;32206;-70
2021/10/31 04:52:31;;;;;;;7.72;4.78;;;;;;;;;;5849053;24;32386;-76
2021/10/31 04:54:59;;;;;;;6.50;4.93;;;;;;;;;;5845480;24;35719;-72
2021/10/31 04:57:26;;;;;;;5.85;4.60;;;;;;;;;;5847648;24;32884;-72
2021/10/31 04:59:53;;;;;;;5.43;4.32;;;;;;;;;;5849211;24;32280;-71
2021/10/31 05:02:19;;;;;;;6.43;4.65;;;;;;;;;;5845916;24;32315;-70
2021/10/31 05:04:46;;;;;;;7.30;5.10;;;;;;;;;;5849047;24;32175;-69
2021/10/31 05:07:15;;;;;;;5.72;4.60;;;;;;;;;;5848956;24;35380;-71
2021/10/31 05:09:42;;;;;;;9.15;5.53;;;;;;;;;;5848543;24;32391;-73
2021/10/31 05:12:11;;;;;;;5.78;4.53;;;;;;;;;;5824747;24;32426;-74
2021/10/31 05:14:38;;;;;;;10.00;4.93;;;;;;;;;;5849430;24;32530;-70
2021/10/31 05:17:05;;;;;;;5.70;3.90;;;;;;;;;;5845759;24;34888;-69
2021/10/31 05:19:32;;;;;;;5.45;4.05;;;;;;;;;;5843130;24;31795;-68
2021/10/31 05:21:58;;;;;;;7.78;4.13;;;;;;;;;;5846624;24;32536;-73
2021/10/31 05:24:25;;;;;;;6.35;4.00;;;;;;;;;;5822640;24;32388;-70
2021/10/31 05:26:52;;;;;;;6.15;4.32;;;;;;;;;;5847551;24;32334;-69
2021/10/31 05:29:20;;;;;;;6.15;4.13;;;;;;;;;;5846639;24;34165;-73
2021/10/31 05:31:46;;;;;;;8.10;4.80;;;;;;;;;;5847140;24;32353;-71
2021/10/31 05:34:13;;;;;;;7.05;4.88;;;;;;;;;;5847084;24;32472;-71
2021/10/31 05:36:39;;;;;;;;;;;;;;;;;;5824252;24;32700;-70
2021/10/31 05:39:07;;;;;;;4.97;3.90;;;;;;;;;;5846719;24;34727;-69
2021/10/31 05:41:33;;;;;;;8.30;4.60;;;;;;;;;;5823273;24;32529;-70
2021/10/31 05:44:00;;;;;;;5.68;4.03;;;;;;;;;;5847374;24;32339;-70
2021/10/31 05:46:31;;;;;;;5.47;4.38;;;;;;;;;;5847447;24;32283;-72
2021/10/31 05:48:58;;;;;;;6.30;4.55;;;;;;;;;;5847571;24;32340;-69
2021/10/31 05:51:25;;;;;;;6.05;3.72;;;;;;;;;;5847226;24;34778;-71
2021/10/31 05:53:51;;;;;;;5.70;4.15;;;;;;;;;;5847197;24;32530;-73
2021/10/31 05:56:18;;;;;;;5.63;4.28;;;;;;;;;;5841946;24;32431;-69
2021/10/31 05:58:45;;;;;;;5.28;4.20;;;;;;;;;;5844309;24;32492;-76
2021/10/31 06:01:11;;;;;;;6.55;4.15;;;;;;;;;;5821088;24;35005;-70
2021/10/31 06:03:39;;;;;;;5.60;4.53;;;;;;;;;;5840490;24;32287;-69
2021/10/31 06:06:06;;;;;;;5.70;4.00;;;;;;;;;;5844720;24;32475;-71
2021/10/31 06:08:34;;;;;;;6.95;4.75;;;;;;;;;;5844470;24;32658;-73
2021/10/31 06:11:01;;;;;;;6.50;4.03;;;;;;;;;;5844528;24;32829;-68
2021/10/31 06:13:28;;;;;;;6.88;4.60;;;;;;;;;;5844743;24;34622;-66
2021/10/31 06:15:55;;;;;;;6.88;4.93;;;;;;;;;;5843907;24;32446;-70
2021/10/31 06:18:21;;;;;;;7.32;5.55;;;;;;;;;;5843531;24;32509;-70
2021/10/31 06:20:49;;;;;;;7.43;4.97;;;;;;;;;;5843797;24;32305;-70
2021/10/31 06:23:16;;;;;;;6.45;4.20;;;;;;;;;;5843253;24;34248;-70
2021/10/31 06:25:43;;;;;;;5.80;4.10;;;;;;;;;;5843637;24;32801;-70
2021/10/31 06:28:09;;;;;;;6.65;3.92;;;;;;;;;;5844319;24;33001;-69
2021/10/31 06:30:36;;;;;;;6.00;4.13;;;;;;;;;;5820460;24;32443;-70
2021/10/31 06:33:03;;;;;;;9.00;4.05;;;;;;;;;;5844646;24;32562;-70
2021/10/31 06:35:30;;;;;;;11.98;4.53;;;;;;;;;;5842581;24;32590;-71
2021/10/31 06:37:58;;;;;;;5.88;4.18;;;;;;;;;;5843463;24;32586;-72
2021/10/31 06:40:25;;;;;;;5.97;4.18;;;;;;;;;;5843573;24;32451;-72
2021/10/31 06:42:52;;;;;;;5.90;4.45;;;;;;;;;;5844306;24;32405;-71
2021/10/31 06:45:19;;;;;;;6.43;4.00;;;;;;;;;;5819828;24;35877;-72
2021/10/31 06:47:46;;;;;;;;;;;;;;;;;;5844020;24;32894;-69
2021/10/31 06:50:12;;;;;;;7.88;4.97;;;;;;;;;;5844306;24;32591;-72
2021/10/31 06:52:39;;;;;;;8.88;4.03;;;;;;;;;;5844536;24;32375;-74
2021/10/31 06:55:10;;;;;;;7.45;5.25;;;;;;;;;;5844619;24;31828;-68
2021/10/31 06:57:39;;;;;;;8.77;4.45;;;;;;;;;;5844435;24;32421;-73
2021/10/31 07:00:08;;;;;;;8.05;4.50;;;;;;;;;;5844241;24;32814;-70
2021/10/31 07:02:34;;;;;;;11.13;6.13;;;;;;;;;;5843995;24;32414;-69
2021/10/31 07:05:01;;;;;;;10.32;5.10;;;;;;;;;;5844313;24;32911;-66
2021/10/31 07:07:28;;;;;;;8.23;5.75;;;;;;;;;;5840577;24;35052;-68
2021/10/31 07:09:55;;;;;;;;;;;;;;;;;;5845427;24;32548;-69
2021/10/31 07:12:22;;;;;;;;;;;;;;;;;;5846842;24;32602;-68
2021/10/31 07:14:49;;;;;;;8.15;5.13;;;;;;;;;;5845297;24;32433;-68
2021/10/31 07:17:16;;;;;;;9.65;5.60;;;;;;;;;;5821464;24;32691;-67
2021/10/31 07:19:42;;;;;;;8.48;5.45;;;;;;;;;;5845913;24;32590;-68
2021/10/31 07:22:10;;;;;;;7.53;4.80;;;;;;;;;;5845758;24;32399;-67
2021/10/31 07:24:38;;;;;;;7.90;5.15;;;;;;;;;;5845670;24;32338;-67
2021/10/31 07:27:06;;;;;;;7.20;5.18;;;;;;;;;;5845240;24;32894;-68
2021/10/31 07:29:34;;;;;;;7.32;5.10;;;;;;;;;;5844310;24;35244;-68
2021/10/31 07:32:02;;;;;;;10.23;6.05;;;;;;;;;;5842148;24;32575;-70
2021/10/31 07:34:28;;;;;;;7.63;5.60;;;;;;;;;;5842506;24;32471;-69
2021/10/31 07:36:55;;;;;;;11.60;5.82;;;;;;;;;;5842598;24;32913;-68
2021/10/31 07:39:22;;;;;;;10.75;5.90;;;;;;;;;;5842403;24;32465;-67
2021/10/31 07:41:49;;;;;;;8.32;5.80;;;;;;;;;;5844032;24;32822;-68
2021/10/31 07:44:16;;;;;;;7.72;5.60;;;;;;;;;;5845331;24;32538;-68
2021/10/31 07:46:45;;;;;;;8.27;5.88;;;;;;;;;;5843841;24;32358;-68
2021/10/31 07:49:11;;;;;;;8.50;6.13;;;;;;;;;;5844371;24;32327;-68
2021/10/31 07:51:38;;;;;;;9.10;5.82;;;;;;;;;;5843823;24;35480;-68
2021/10/31 07:54:05;;;;;;;10.93;7.22;;;;;;;;;;5843203;24;32799;-66
2021/10/31 07:56:35;;;;;;;;;;;;;;;;;;5821076;24;32775;-69
2021/10/31 07:59:02;;;;;;;10.48;6.20;;;;;;;;;;5845491;24;32649;-68
2021/10/31 08:01:28;;;;;;;9.25;6.47;;;;;;;;;;5848038;24;32322;-68
2021/10/31 08:03:57;;;;;;;10.52;7.65;;;;;;;;;;5847188;24;32459;-72
2021/10/31 08:06:24;;;;;;;10.35;6.38;;;;;;;;;;5847591;24;32354;-69
2021/10/31 08:08:51;;;;;;;8.77;6.90;;;;;;;;;;5844005;24;32630;-71
2021/10/31 08:11:18;;;;;;;10.18;6.93;;;;;;;;;;5844739;24;32752;-69
2021/10/31 08:13:45;;;;;;;10.93;6.28;;;;;;;;;;5823290;24;34232;-71
2021/10/31 08:16:12;;;;;;;11.98;7.15;;;;;;;;;;5847389;24;32502;-69
2021/10/31 08:18:38;;;;;;;11.20;6.55;;;;;;;;;;5847938;24;32439;-71
2021/10/31 08:21:08;;;;;;;9.98;6.93;;;;;;;;;;5848034;24;32436;-69
2021/10/31 08:23:35;;;;;;;10.43;7.13;;;;;;;;;;5848318;24;32287;-70
2021/10/31 08:26:02;;;;;;;10.73;6.72;;;;;;;;;;5847901;24;32532;-70
2021/10/31 08:28:32;;;;;;;11.55;7.50;;;;;;;;;;5842928;24;32458;-68
2021/10/31 08:30:59;;;;;;;10.65;6.82;;;;;;;;;;5845681;24;32448;-67
2021/10/31 08:33:31;;;;;;;15.18;7.38;;;;;;;;;;5821586;24;32372;-67
2021/10/31 08:35:58;;;;;;;11.05;6.88;;;;;;;;;;5845471;24;34002;-69
2021/10/31 08:38:28;;;;;;;11.23;7.28;;;;;;;;;;5844384;24;32421;-70
2021/10/31 08:40:56;;;;;;;13.25;7.95;;;;;;;;;;5845032;24;32503;-69
2021/10/31 08:43:24;;;;;;;12.90;8.50;;;;;;;;;;5845508;24;32270;-69
2021/10/31 08:45:52;;;;;;;11.80;7.63;;;;;;;;;;5845695;24;35104;-70
2021/10/31 08:48:20;;;;;;;14.57;8.07;;;;;;;;;;5845169;24;32465;-72
2021/10/31 08:50:47;;;;;;;12.50;7.82;;;;;;;;;;5821180;24;32503;-69
2021/10/31 08:53:17;;;;;;;9.90;7.57;;;;;;;;;;5845007;24;32531;-68
2021/10/31 08:55:46;;;;;;;16.52;8.32;;;;;;;;;;5845175;24;32468;-70
2021/10/31 08:58:13;;;;;;;14.00;8.30;;;;;;;;;;5844050;24;35011;-69
2021/10/31 09:00:42;;;;;;;15.25;7.72;;;;;;;;;;5845116;24;32480;-67
2021/10/31 09:03:08;;;;;;;13.95;8.43;;;;;;;;;;5845836;24;32282;-70
2021/10/31 09:05:37;;;;;;;13.20;8.45;;;;;;;;;;5847278;24;32333;-68
2021/10/31 09:08:06;;;;;;;10.07;7.13;;;;;;;;;;5845833;24;34183;-71
2021/10/31 09:10:33;;;;;;;13.93;7.78;;;;;;;;;;5844286;24;32282;-69
2021/10/31 09:13:01;;;;;;;12.95;8.85;;;;;;;;;;5847097;24;32401;-71
2021/10/31 09:15:29;;;;;;;13.07;8.85;;;;;;;;;;5843450;24;32357;-70
2021/10/31 09:17:56;;;;;;;13.77;8.80;;;;;;;;;;5819334;24;32505;-70
2021/10/31 09:20:25;;;;;;;12.60;8.55;;;;;;;;;;5847263;24;34634;-72
2021/10/31 09:22:53;;;;;;;12.10;8.02;;;;;;;;;;5823173;24;32343;-68
2021/10/31 09:25:21;;;;;;;12.05;7.70;;;;;;;;;;5847113;24;32418;-70
2021/10/31 09:27:48;;;;;;;10.88;7.00;;;;;;;;;;5846899;24;32393;-70
2021/10/31 09:30:16;;;;;;;9.80;5.53;;;;;;;;;;5846467;24;36377;-68
2021/10/31 09:32:47;;;;;;;8.05;5.97;;;;;;;;;;5847211;24;32617;-68
2021/10/31 09:35:15;;;;;;;8.57;5.32;;;;;;;;;;5846867;24;32689;-70
2021/10/31 09:37:42;;;;;;;8.60;5.55;;;;;;;;;;5846609;24;32515;-67
2021/10/31 09:40:10;;;;;;;7.63;5.22;;;;;;;;;;5847017;24;32589;-66
2021/10/31 09:42:38;;;;;;;6.45;4.43;;;;;;;;;;5846271;24;34488;-67
2021/10/31 09:45:06;;;;;;;7.93;5.57;;;;;;;;;;5846156;24;32830;-67
2021/10/31 09:47:34;;;;;;;6.97;5.20;;;;;;;;;;5845898;24;32314;-71
2021/10/31 09:50:01;;;;;;;7.28;4.50;;;;;;;;;;5846105;24;32889;-69
2021/10/31 09:52:28;;;;;;;6.00;4.85;;;;;;;;;;5847343;24;35070;-69
2021/10/31 09:54:58;;;;;;;6.05;4.38;;;;;;;;;;5847097;24;32283;-68
2021/10/31 09:57:25;;;;;;;6.45;4.53;;;;;;;;;;5847209;24;32693;-68
2021/10/31 09:59:56;;;;;;;6.32;4.30;;;;;;;;;;5847280;24;32394;-68
2021/10/31 10:05:20;;;;;;;9.25;5.00;;;;;;;;;;5846935;24;33964;-69
2021/10/31 10:07:47;;;;;;;;;;;;;;;;;;5847694;24;32326;-67
2021/10/31 10:10:15;;;;;;;6.15;4.20;;;;;;;;;;5846781;24;32360;-71
2021/10/31 10:12:42;;;;;;;9.40;5.18;;;;;;;;;;5847145;24;32388;-67
2021/10/31 10:15:11;;;;;;;;;;;;;;;;;;5847298;24;35139;-67
2021/10/31 10:17:46;;;;;;;5.63;4.15;;;;;;;;;;5847314;24;32379;-67
2021/10/31 10:20:14;;;;;;;5.30;4.40;;;;;;;;;;5843562;24;32337;-69
2021/10/31 10:22:43;;;;;;;8.38;4.65;;;;;;;;;;5843638;24;32432;-70
2021/10/31 10:25:10;;;;;;;6.30;4.72;;;;;;;;;;5846960;24;32366;-68
2021/10/31 10:27:48;;;;;;;9.18;4.40;;;;;;;;;;5845677;24;36109;-68
2021/10/31 10:30:18;;;;;;;9.20;4.80;;;;;;;;;;5845831;24;32364;-70
2021/10/31 10:32:50;;;;;;;6.35;4.68;;;;;;;;;;5846160;24;32373;-70
2021/10/31 10:35:18;;;;;;;7.15;4.55;;;;;;;;;;5845400;24;32416;-69
2021/10/31 10:37:47;;;;;;;8.90;6.40;;;;;;;;;;5846792;24;34151;-71
2021/10/31 10:40:20;;;;;;;7.68;6.63;;;;;;;;;;5848690;24;32487;-70
2021/10/31 10:42:50;;;;;;;9.70;7.15;;;;;;;;;;5848207;24;32585;-75
2021/10/31 10:45:21;;;;;;;11.57;8.05;;;;;;;;;;5846781;24;32356;-72
2021/10/31 10:47:53;;;;;;;9.77;7.68;;;;;;;;;;5847630;24;32515;-73
2021/10/31 10:50:22;;;;;;;13.05;8.45;;;;;;;;;;5848533;24;34043;-72
2021/10/31 10:52:50;;;;;;;11.63;8.80;;;;;;;;;;5848660;24;32461;-75
2021/10/31 10:55:20;;;;;;;13.02;8.00;;;;;;;;;;5849097;24;32252;-73
2021/10/31 10:57:49;;;;;;;13.15;8.75;;;;;;;;;;5850223;24;32328;-70
2021/10/31 11:00:19;;;;;;;13.15;8.73;;;;;;;;;;5849719;24;35400;-71
2021/10/31 11:02:47;;;;;;;12.10;8.55;;;;;;;;;;5849796;24;32424;-73
2021/10/31 11:05:19;;;;;;;13.07;8.60;;;;;;;;;;5848072;24;32228;-71
2021/10/31 11:07:49;;;;;;;10.77;8.68;;;;;;;;;;5848208;24;32455;-67
2021/10/31 11:10:20;;;;;;;13.13;8.73;;;;;;;;;;5820833;24;32654;-72
2021/10/31 11:12:49;;;;;;;12.15;8.45;;;;;;;;;;5818270;24;35144;-68
2021/10/31 11:15:19;;;;;;;14.23;8.45;;;;;;;;;;5819664;24;33078;-66
2021/10/31 11:17:49;;;;;;;16.30;8.70;;;;;;;;;;5819198;24;32274;-67
2021/10/31 11:20:18;;;;;;;14.90;8.43;;;;;;;;;;5820879;24;32295;-69
2021/10/31 11:22:47;;;;;;;11.77;8.55;;;;;;;;;;5817839;24;34531;-67
2021/10/31 11:25:18;;;;;;;13.25;8.55;;;;;;;;;;5821816;24;32450;-69
2021/10/31 11:27:47;;;;;;;10.90;7.43;;;;;;;;;;5819590;24;32454;-69
2021/10/31 11:30:16;;;;;;;11.25;6.95;;;;;;;;;;5822734;24;32382;-67
2021/10/31 11:32:43;;;;;;;13.23;6.57;;;;;;;;;;5821127;24;32850;-71
2021/10/31 11:35:14;;;;;;;12.95;7.40;;;;;;;;;;5822079;24;34396;-69
2021/10/31 11:37:45;;;;;;;14.18;8.90;;;;;;;;;;5822949;24;32598;-69
2021/10/31 11:40:15;;;;;;;13.00;6.78;;;;;;;;;;5820869;24;32481;-70
2021/10/31 11:42:45;;;;;;;12.18;6.75;;;;;;;;;;5821748;24;32404;-68
2021/10/31 11:45:18;;;;;;;10.13;7.40;;;;;;;;;;5822399;24;33996;-68
2021/10/31 11:48:10;;;;;;;11.50;6.90;;;;;;;;;;5821830;24;32602;-69
2021/10/31 11:50:39;;;;;;;10.38;6.88;;;;;;;;;;5822825;24;32442;-70
2021/10/31 11:53:16;;;;;;;10.10;6.85;;;;;;;;;;5821548;24;32392;-70
2021/10/31 11:55:51;;;;;;;15.88;6.78;;;;;;;;;;5822092;24;32309;-70
2021/10/31 11:58:55;;;;;;;9.55;6.90;;;;;;;;;;5842084;24;34464;-69
2021/10/31 12:01:50;;;;;;;9.55;6.43;;;;;;;;;;5822424;24;32406;-71
2021/10/31 12:07:40;;;;;;;9.27;6.05;;;;;;;;;;5820617;24;32322;-70
2021/10/31 12:10:28;;;;;;;13.40;6.65;;;;;;;;;;5833099;24;34418;-69
2021/10/31 12:13:16;;;;;;;10.20;7.25;;;;;;;;;;5849407;24;32378;-68
2021/10/31 12:15:57;;;;;;;9.13;5.95;;;;;;;;;;5848856;24;32346;-68
2021/10/31 12:18:42;;;;;;;10.07;6.30;;;;;;;;;;5849203;24;32360;-68
2021/10/31 12:21:19;;;;;;;8.82;6.90;;;;;;;;;;5849145;24;32299;-69
2021/10/31 12:23:55;;;;;;;11.75;6.90;;;;;;;;;;5849029;24;35519;-69
2021/10/31 12:26:24;;;;;;;11.98;6.43;;;;;;;;;;5849210;24;32241;-68
2021/10/31 12:29:09;;;;;;;8.07;5.68;;;;;;;;;;5848781;24;32358;-68
2021/10/31 12:31:35;;;;;;;11.27;6.57;;;;;;;;;;5845995;24;32408;-68
2021/10/31 12:34:14;;;;;;;8.40;6.03;;;;;;;;;;5845439;24;34575;-69
2021/10/31 12:36:45;;;;;;;10.48;6.93;;;;;;;;;;5849180;24;32404;-68
2021/10/31 12:39:52;;;;;;;9.07;6.82;;;;;;;;;;5849066;24;32357;-69
2021/10/31 12:42:22;;;;;;;9.77;6.60;;;;;;;;;;5810435;24;32711;-71
2021/10/31 12:44:55;;;;;;;8.82;6.18;;;;;;;;;;5848174;24;32322;-68
2021/10/31 12:47:25;;;;;;;8.95;6.60;;;;;;;;;;5848949;24;33888;-71
2021/10/31 12:50:07;;;;;;;10.27;6.25;;;;;;;;;;5848737;24;32424;-67
2021/10/31 12:52:34;;;;;;;10.40;6.47;;;;;;;;;;5849237;24;32271;-69
2021/10/31 12:55:04;;;;;;;11.88;6.60;;;;;;;;;;5849153;24;32466;-70
2021/10/31 12:57:32;;;;;;;10.90;7.32;;;;;;;;;;5849094;24;34309;-70
2021/10/31 13:00:06;;;;;;;9.75;6.30;;;;;;;;;;5848721;24;32338;-70
2021/10/31 13:02:35;;;;;;;9.95;6.90;;;;;;;;;;5848885;24;32260;-71
2021/10/31 13:05:07;;;;;;;8.15;6.22;;;;;;;;;;5848879;24;32373;-69
2021/10/31 13:07:40;;;;;;;10.18;6.05;;;;;;;;;;5847554;24;32392;-72
2021/10/31 13:10:10;;;;;;;11.02;6.95;;;;;;;;;;5848898;24;34164;-70
2021/10/31 13:12:38;;;;;;;9.98;6.38;;;;;;;;;;5849125;24;32548;-72
2021/10/31 13:15:13;;;;;;;10.73;6.72;;;;;;;;;;5848644;24;32440;-68
2021/10/31 13:17:43;;;;;;;11.25;6.95;;;;;;;;;;5849000;24;32631;-69
2021/10/31 13:20:29;;;;;;;9.65;7.10;;;;;;;;;;5848539;24;34522;-70
2021/10/31 13:22:59;;;;;;;;;;;;;;;;;;5849096;24;32484;-68
2021/10/31 13:25:30;;;;;;;9.48;6.35;;;;;;;;;;5848727;24;32301;-69
2021/10/31 13:27:59;;;;;;;10.80;7.63;;;;;;;;;;5848703;24;32385;-69
2021/10/31 13:30:34;;;;;;;10.63;6.25;;;;;;;;;;5849043;24;32335;-70
2021/10/31 13:33:02;;;;;;;10.32;7.18;;;;;;;;;;5848262;24;34156;-68
2021/10/31 13:35:30;;;;;;;10.60;6.70;;;;;;;;;;5848334;24;32635;-68
2021/10/31 13:38:07;;;;;;;9.57;7.03;;;;;;;;;;5845414;24;32409;-68
2021/10/31 13:40:41;;;;;;;10.10;6.85;;;;;;;;;;5845503;24;32283;-67
2021/10/31 13:43:07;;;;;;;8.00;5.82;;;;;;;;;;5848250;24;34496;-68
2021/10/31 13:45:35;;;;;;;7.80;5.88;;;;;;;;;;5848364;24;32368;-69
2021/10/31 13:48:19;;;;;;;10.10;6.72;;;;;;;;;;5848413;24;32318;-70
2021/10/31 13:50:49;;;;;;;10.48;6.40;;;;;;;;;;5828132;24;32259;-69
2021/10/31 13:53:16;;;;;;;10.45;7.13;;;;;;;;;;5848746;24;32390;-69
2021/10/31 13:55:51;;;;;;;10.23;6.97;;;;;;;;;;5848259;24;35276;-69
2021/10/31 13:58:22;;;;;;;11.38;7.00;;;;;;;;;;5848542;24;32391;-69
2021/10/31 14:00:50;;;;;;;9.30;6.10;;;;;;;;;;5848444;24;32335;-70
2021/10/31 14:03:22;;;;;;;9.02;7.05;;;;;;;;;;5848120;24;32373;-68
2021/10/31 14:05:49;;;;;;;9.18;6.82;;;;;;;;;;5848058;24;33989;-69
2021/10/31 14:08:17;;;;;;;10.15;6.90;;;;;;;;;;5848511;24;32407;-69
2021/10/31 14:10:46;;;;;;;8.63;6.10;;;;;;;;;;5819382;24;32345;-68
2021/10/31 14:13:15;;;;;;;9.55;6.68;;;;;;;;;;5821568;24;32448;-70
2021/10/31 14:15:45;;;;;;;11.25;7.05;;;;;;;;;;5821602;24;32231;-69
2021/10/31 14:18:16;;;;;;;9.98;6.70;;;;;;;;;;5821329;24;34134;-70
2021/10/31 14:20:47;;;;;;;11.63;7.10;;;;;;;;;;5821895;24;32451;-68
2021/10/31 14:23:24;;;;;;;9.27;6.78;;;;;;;;;;5821516;24;32673;-70
2021/10/31 14:25:51;;;;;;;12.63;6.75;;;;;;;;;;5820402;24;32424;-68
2021/10/31 14:28:20;;;;;;;8.82;6.22;;;;;;;;;;5821008;24;35410;-69
2021/10/31 14:30:55;;;;;;;10.88;7.53;;;;;;;;;;5821297;24;32354;-69
2021/10/31 14:33:25;;;;;;;11.02;7.25;;;;;;;;;;5820036;24;32650;-69
2021/10/31 14:35:57;;;;;;;11.68;6.55;;;;;;;;;;5821373;24;32301;-69
2021/10/31 14:38:29;;;;;;;9.10;6.05;;;;;;;;;;5821835;24;32379;-68
2021/10/31 14:41:18;;;;;;;9.50;6.55;;;;;;;;;;5821280;24;33864;-68
2021/10/31 14:43:57;;;;;;;11.25;5.55;;;;;;;;;;5815034;24;32625;-72
2021/10/31 14:46:36;;;;;;;9.02;5.70;;;;;;;;;;5821669;24;32434;-69
2021/10/31 14:49:06;;;;;;;8.93;5.82;;;;;;;;;;5816667;24;32398;-70
2021/10/31 14:51:41;;;;;;;8.02;5.70;;;;;;;;;;5821535;24;34442;-70
2021/10/31 14:54:19;;;;;;;10.23;6.57;;;;;;;;;;5821901;24;32315;-70
2021/10/31 14:57:02;;;;;;;9.45;6.53;;;;;;;;;;5821893;24;32577;-68
2021/10/31 14:59:33;;;;;;;8.50;5.78;;;;;;;;;;5821755;24;32413;-69
2021/10/31 15:01:59;;;;;;;8.00;5.75;;;;;;;;;;5821551;24;32623;-72
2021/10/31 15:04:28;;;;;;;9.60;5.43;;;;;;;;;;5821233;24;34489;-70
2021/10/31 15:06:56;;;;;;;8.18;5.72;;;;;;;;;;5821336;24;32345;-68